Time;durP1;ratioP1;P1;durP2;ratioP2;P2;SDS_P1;SDS_P2;PMS_P1;PMS_P2;Temp;Humidity;BMP_temperature;BMP_pressure;BME280_temperature;BME280_humidity;BME280_pressure;Samples;Min_cycle;Max_cycle;Signal;HPM_P1;HPM_P2
2024/01/10 00:00:40;;;;;;;119.25;42.90;;;;;;;-9.08;78.56;103088.97;6270621;22;20032;-67
2024/01/10 00:03:07;;;;;;;116.20;44.28;;;;;;;-9.05;79.35;103080.25;6270804;22;20517;-65
2024/01/10 00:05:33;;;;;;;121.25;44.88;;;;;;;-9.12;79.17;103089.69;6269370;22;20016;-69
2024/01/10 00:08:00;;;;;;;128.95;43.88;;;;;;;-9.14;79.07;103088.75;6241429;22;20026;-68
2024/01/10 00:10:30;;;;;;;119.07;43.53;;;;;;;-9.01;79.25;103081.25;6271630;22;20024;-69
2024/01/10 00:12:57;;;;;;;120.63;44.97;;;;;;;-9.13;78.67;103082.66;6227075;22;20120;-67
2024/01/10 00:15:23;;;;;;;128.88;45.72;;;;;;;-9.17;79.03;103078.16;6244892;22;20023;-67
2024/01/10 00:17:50;;;;;;;126.18;44.55;;;;;;;-9.14;78.54;103083.50;6271326;22;20101;-66
2024/01/10 00:20:17;;;;;;;133.57;45.25;;;;;;;-9.15;78.89;103073.84;6270184;22;20399;-65
2024/01/10 00:22:44;;;;;;;136.05;45.78;;;;;;;-9.15;79.02;103075.56;6269626;22;20102;-68
2024/01/10 00:25:11;;;;;;;133.43;45.22;;;;;;;-9.15;79.05;103081.72;6270011;22;20036;-67
2024/01/10 00:27:37;;;;;;;132.40;44.55;;;;;;;-9.16;79.24;103072.06;6271613;22;20019;-68
2024/01/10 00:30:08;;;;;;;124.68;44.72;;;;;;;-9.19;78.12;103069.34;6265912;22;20027;-68
2024/01/10 00:32:35;;;;;;;126.82;44.38;;;;;;;-9.20;78.53;103072.78;6270508;22;20119;-68
2024/01/10 00:35:02;;;;;;;128.52;45.00;;;;;;;-9.19;78.44;103068.44;6270966;22;20068;-67
2024/01/10 00:37:29;;;;;;;129.93;43.60;;;;;;;-9.25;77.77;103063.91;6270846;22;20047;-67
2024/01/10 00:39:56;;;;;;;117.90;41.50;;;;;;;-9.22;78.43;103053.47;6261297;22;20470;-66
2024/01/10 00:42:23;;;;;;;120.18;45.63;;;;;;;-9.26;78.18;103062.13;6240356;23;20020;-66
2024/01/10 00:44:49;;;;;;;129.10;44.63;;;;;;;-9.11;77.97;103059.03;6240734;23;20457;-67
2024/01/10 00:47:17;;;;;;;128.32;43.50;;;;;;;-9.17;78.19;103051.88;6241580;23;20405;-67
2024/01/10 00:49:44;;;;;;;127.07;43.38;;;;;;;-9.17;77.89;103048.38;6239967;23;20024;-67
2024/01/10 00:52:10;;;;;;;130.02;44.67;;;;;;;-9.19;77.64;103058.84;6240130;23;20030;-67
2024/01/10 00:54:37;;;;;;;127.10;44.92;;;;;;;-9.16;78.24;103058.91;6240019;23;20082;-67
2024/01/10 00:57:03;;;;;;;133.38;46.15;;;;;;;-9.15;77.96;103050.19;6240563;23;20336;-69
2024/01/10 00:59:30;;;;;;;115.93;45.10;;;;;;;-9.26;77.43;103051.59;6239034;23;20087;-66
2024/01/10 01:01:57;;;;;;;124.63;43.63;;;;;;;-9.26;78.27;103050.72;6227036;23;20471;-66
2024/01/10 01:04:24;;;;;;;129.18;45.90;;;;;;;-9.28;78.15;103061.19;6239924;23;20019;-68
2024/01/10 01:06:57;;;;;;;134.07;47.67;;;;;;;-9.27;77.85;103055.09;6240580;23;20024;-69
2024/01/10 01:09:24;;;;;;;127.78;45.53;;;;;;;-9.20;77.71;103051.78;6215078;23;20079;-68
2024/01/10 01:11:51;;;;;;;125.05;46.08;;;;;;;-9.19;77.47;103047.41;6209144;23;20020;-69
2024/01/10 01:14:18;;;;;;;122.75;43.05;;;;;;;-9.11;77.53;103052.03;6240247;23;20034;-67
2024/01/10 01:16:44;;;;;;;136.45;44.63;;;;;;;-9.02;77.64;103050.53;6238972;23;20024;-67
2024/01/10 01:19:11;;;;;;;129.80;45.10;;;;;;;-8.99;77.61;103050.66;6212717;23;20039;-66
2024/01/10 01:21:38;;;;;;;123.28;46.30;;;;;;;-9.05;77.00;103052.25;6237852;23;20077;-65
2024/01/10 01:24:05;;;;;;;125.60;43.78;;;;;;;-9.08;76.91;103053.91;6238640;23;20024;-68
2024/01/10 01:26:32;;;;;;;130.05;45.13;;;;;;;-9.06;76.86;103045.19;6238671;23;20075;-66
2024/01/10 01:28:58;;;;;;;111.45;42.13;;;;;;;-8.91;76.46;103038.59;6238305;23;20024;-67
2024/01/10 01:31:25;;;;;;;113.18;42.72;;;;;;;-8.74;75.78;103037.34;6238601;23;20021;-68
2024/01/10 01:33:51;;;;;;;130.75;46.17;;;;;;;-8.87;76.14;103037.84;6239562;23;20466;-68
2024/01/10 01:36:18;;;;;;;118.30;44.45;;;;;;;-8.71;75.09;103036.56;6240642;23;20370;-68
2024/01/10 01:38:45;;;;;;;118.50;43.60;;;;;;;-8.70;75.18;103040.97;6240122;23;20026;-67
2024/01/10 01:41:11;;;;;;;123.47;44.67;;;;;;;-8.70;74.42;103035.72;6238491;22;20028;-66
2024/01/10 01:43:38;;;;;;;119.97;43.70;;;;;;;-8.93;74.57;103040.28;6237836;23;20418;-65
2024/01/10 01:46:06;;;;;;;117.28;42.17;;;;;;;-8.89;75.08;103034.31;6240002;23;20316;-67
2024/01/10 01:48:32;;;;;;;125.20;43.92;;;;;;;-8.94;74.98;103033.25;6240111;23;20399;-66
2024/01/10 01:51:02;;;;;;;121.60;45.08;;;;;;;-8.84;74.63;103030.03;6227935;23;20024;-67
2024/01/10 01:53:30;;;;;;;118.90;43.22;;;;;;;-8.84;74.43;103036.19;6240370;23;20454;-66
2024/01/10 01:55:57;;;;;;;119.07;44.15;;;;;;;-8.84;74.18;103035.31;6240572;23;20403;-67
2024/01/10 01:58:24;;;;;;;121.03;44.78;;;;;;;-8.95;74.20;103032.38;6240453;23;20055;-70
2024/01/10 02:00:51;;;;;;;124.75;43.78;;;;;;;-8.95;75.34;103031.47;6241007;23;20031;-67
2024/01/10 02:03:18;;;;;;;124.03;44.55;;;;;;;-8.95;74.44;103036.75;6214160;23;20039;-67
2024/01/10 02:09:38;;;;;;;121.28;41.10;;;;;;;-8.98;75.01;103031.41;6239072;23;20063;-67
2024/01/10 02:12:07;;;;;;;141.40;44.65;;;;;;;-9.02;74.46;103022.50;6241299;23;20086;-68
2024/01/10 02:14:34;;;;;;;136.48;42.90;;;;;;;-9.07;74.04;103030.28;6240277;23;20078;-67
2024/01/10 02:17:00;;;;;;;124.45;44.65;;;;;;;-9.10;74.65;103032.78;6239456;23;20355;-67
2024/01/10 02:19:29;;;;;;;132.75;43.80;;;;;;;-9.10;73.65;103035.44;6240028;23;20197;-67
2024/01/10 02:21:56;;;;;;;125.38;43.97;;;;;;;-9.10;74.83;103038.06;6241218;23;20359;-67
2024/01/10 02:24:22;;;;;;;131.98;43.03;;;;;;;-9.09;74.67;103038.97;6240316;23;20016;-67
2024/01/10 02:26:50;;;;;;;135.63;42.80;;;;;;;-9.12;74.36;103023.09;6241521;23;20020;-67
2024/01/10 02:29:16;;;;;;;122.88;41.83;;;;;;;-9.10;74.99;103027.53;6241222;23;20040;-68
2024/01/10 02:31:44;;;;;;;139.38;44.63;;;;;;;-9.11;74.81;103031.03;6241776;23;20170;-67
2024/01/10 02:34:11;;;;;;;121.47;43.60;;;;;;;-9.15;75.20;103029.16;6239767;23;20024;-67
2024/01/10 02:36:37;;;;;;;129.57;44.45;;;;;;;-9.18;75.02;103029.06;6239532;23;20024;-68
2024/01/10 02:39:04;;;;;;;127.70;45.30;;;;;;;-9.17;74.60;103025.59;6240591;23;20458;-67
2024/01/10 02:41:31;;;;;;;128.15;43.05;;;;;;;-9.18;75.24;103023.81;6240428;22;20020;-67
2024/01/10 02:43:59;;;;;;;125.45;42.10;;;;;;;-9.18;75.36;103018.56;6239872;23;20454;-66
2024/01/10 02:46:29;;;;;;;132.18;45.13;;;;;;;-9.16;74.67;103021.22;6241129;23;20028;-67
2024/01/10 02:48:55;;;;;;;129.50;43.72;;;;;;;-9.12;75.02;103013.47;6240459;23;20043;-67
2024/01/10 02:51:26;;;;;;;120.88;42.00;;;;;;;-9.16;74.82;103016.88;6240352;23;20087;-66
2024/01/10 02:53:53;;;;;;;129.70;44.28;;;;;;;-9.12;74.91;103023.97;6240533;23;20028;-68
2024/01/10 02:56:20;;;;;;;128.50;43.95;;;;;;;-9.16;75.16;103019.50;6241254;23;20024;-69
2024/01/10 02:58:47;;;;;;;134.93;46.20;;;;;;;-9.18;75.50;103030.81;6242595;23;20030;-69
2024/01/10 03:01:14;;;;;;;128.40;45.53;;;;;;;-9.17;74.95;103027.34;6242031;23;20070;-69
2024/01/10 03:03:41;;;;;;;135.05;46.10;;;;;;;-9.23;75.03;103025.41;6240402;23;20035;-68
2024/01/10 03:06:08;;;;;;;139.13;47.80;;;;;;;-9.21;75.30;103022.81;6239976;23;20638;-68
2024/01/10 03:08:35;;;;;;;135.57;45.42;;;;;;;-9.26;75.17;103019.19;6239839;23;20123;-67
2024/01/10 03:11:01;;;;;;;132.55;45.65;;;;;;;-9.32;75.33;103012.00;6213218;23;20131;-67
2024/01/10 03:13:28;;;;;;;133.60;45.50;;;;;;;-9.32;75.68;103014.63;6241725;23;20016;-69
2024/01/10 03:15:54;;;;;;;131.60;49.10;;;;;;;-9.36;75.94;103007.53;6241749;23;20398;-69
2024/01/10 03:18:21;;;;;;;127.07;47.90;;;;;;;-9.29;76.17;103011.19;6241629;23;20045;-70
2024/01/10 03:20:48;;;;;;;117.72;43.75;;;;;;;-9.38;76.10;103003.94;6241785;23;20026;-69
2024/01/10 03:23:14;;;;;;;132.57;46.78;;;;;;;-9.38;76.72;103003.94;6242565;23;20469;-69
2024/01/10 03:25:41;;;;;;;134.48;46.30;;;;;;;-9.43;76.71;103008.19;6241691;23;20769;-69
2024/01/10 03:28:07;;;;;;;141.30;44.80;;;;;;;-9.47;76.20;103001.03;6241340;23;20102;-68
2024/01/10 03:30:34;;;;;;;137.93;44.90;;;;;;;-9.45;76.28;102997.63;6241525;23;20031;-69
2024/01/10 03:33:01;;;;;;;113.07;43.25;;;;;;;-9.43;76.01;103001.19;6242169;23;20028;-68
2024/01/10 03:35:27;;;;;;;128.52;45.35;;;;;;;-9.46;75.49;103003.75;6241945;23;20020;-68
2024/01/10 03:37:55;;;;;;;134.40;45.67;;;;;;;-9.42;75.65;102999.47;6241722;23;20024;-68
2024/01/10 03:40:22;;;;;;;129.88;45.05;;;;;;;-9.41;75.56;102996.88;6241752;23;20379;-69
2024/01/10 03:42:49;;;;;;;126.40;44.33;;;;;;;-9.41;75.34;102995.97;6242299;23;20521;-68
2024/01/10 03:45:18;;;;;;;127.35;45.25;;;;;;;-9.40;75.38;102997.75;6242977;23;20078;-69
2024/01/10 03:47:49;;;;;;;131.60;43.65;;;;;;;-9.38;75.09;102996.06;6242449;23;20098;-69
2024/01/10 03:50:19;;;;;;;136.30;47.45;;;;;;;-9.39;75.37;103004.78;6242065;23;20391;-69
2024/01/10 03:52:46;;;;;;;134.32;44.97;;;;;;;-9.39;75.40;102996.91;6242282;23;20027;-69
2024/01/10 03:55:13;;;;;;;136.38;48.17;;;;;;;-9.41;75.75;102998.59;6241910;23;20031;-69
2024/01/10 03:57:39;;;;;;;127.43;44.15;;;;;;;-9.39;75.42;102997.81;6241108;23;20343;-69
2024/01/10 04:00:06;;;;;;;132.68;44.78;;;;;;;-9.43;75.12;103001.19;6208852;23;21719;-68
2024/01/10 04:02:33;;;;;;;136.07;47.00;;;;;;;-9.40;75.31;102992.50;6234038;23;20623;-66
2024/01/10 04:05:00;;;;;;;136.10;44.75;;;;;;;-9.39;74.86;102989.91;6237649;23;20355;-67
2024/01/10 04:07:27;;;;;;;136.80;46.45;;;;;;;-9.39;75.37;102994.28;6238289;23;20024;-67
2024/01/10 04:09:54;;;;;;;139.00;46.78;;;;;;;-9.39;75.56;102987.28;6238111;23;20086;-66
2024/01/10 04:12:20;;;;;;;135.95;47.78;;;;;;;-9.37;75.36;102995.25;6215180;23;20095;-66
2024/01/10 04:14:47;;;;;;;138.65;46.30;;;;;;;-9.35;74.66;102994.44;6239862;23;20123;-66
2024/01/10 04:17:13;;;;;;;134.48;45.38;;;;;;;-9.35;74.77;102993.56;6240087;23;20083;-66
2024/01/10 04:19:41;;;;;;;129.15;43.83;;;;;;;-9.37;74.96;102993.50;6240046;23;20044;-66
2024/01/10 04:22:07;;;;;;;133.55;45.28;;;;;;;-9.35;74.80;102990.94;6239154;23;20043;-66
2024/01/10 04:24:34;;;;;;;150.93;47.65;;;;;;;-9.33;74.42;102990.09;6239982;23;20026;-66
2024/01/10 04:27:00;;;;;;;135.60;45.28;;;;;;;-9.28;74.06;103000.75;6240212;23;20028;-66
2024/01/10 04:29:28;;;;;;;131.02;45.10;;;;;;;-9.21;74.80;102994.81;6239079;23;20086;-66
2024/01/10 04:31:54;;;;;;;123.43;43.95;;;;;;;-9.17;74.52;102994.06;6241673;23;20082;-66
2024/01/10 04:34:22;;;;;;;123.60;44.40;;;;;;;-9.07;74.50;102990.84;6241312;23;20023;-66
2024/01/10 04:36:49;;;;;;;117.45;44.25;;;;;;;-9.09;73.47;102991.66;6241296;23;20024;-66
2024/01/10 04:39:16;;;;;;;132.68;45.60;;;;;;;-9.16;73.78;102979.19;6240518;23;20102;-66
2024/01/10 04:41:42;;;;;;;133.00;44.22;;;;;;;-9.25;74.27;102976.28;6239543;23;20024;-66
2024/01/10 04:44:09;;;;;;;132.82;45.88;;;;;;;-9.20;74.23;102978.19;6212912;23;20031;-66
2024/01/10 04:46:35;;;;;;;121.72;43.50;;;;;;;-9.25;74.17;102979.81;6238870;23;20016;-66
2024/01/10 04:49:02;;;;;;;128.60;45.10;;;;;;;-9.22;74.00;102977.25;6239671;23;20128;-66
2024/01/10 04:51:29;;;;;;;127.93;44.10;;;;;;;-9.23;74.19;102978.09;6237709;23;20024;-66
2024/01/10 04:53:55;;;;;;;122.95;43.15;;;;;;;-9.23;74.11;102980.72;6238175;23;20093;-66
2024/01/10 04:56:22;;;;;;;120.50;43.00;;;;;;;-9.14;74.13;102981.00;6214918;23;20398;-67
2024/01/10 04:58:48;;;;;;;128.07;46.33;;;;;;;-9.22;73.53;102979.88;6242023;23;20020;-66
2024/01/10 05:01:15;;;;;;;134.00;43.72;;;;;;;-9.21;73.87;102980.78;6241889;23;20122;-65
2024/01/10 05:03:42;;;;;;;123.82;44.58;;;;;;;-9.25;73.84;102981.53;6239425;23;20098;-65
2024/01/10 05:06:09;;;;;;;127.97;43.88;;;;;;;-9.18;73.58;102981.78;6238068;23;20055;-67
2024/01/10 05:08:35;;;;;;;123.45;44.03;;;;;;;-9.05;73.37;102978.63;6236809;23;20020;-67
2024/01/10 05:11:03;;;;;;;121.93;41.88;;;;;;;-9.23;73.56;102975.47;6237541;23;20040;-66
2024/01/10 05:13:30;;;;;;;126.85;42.67;;;;;;;-9.25;73.46;102978.91;6236588;23;20078;-65
2024/01/10 05:15:56;;;;;;;118.72;42.83;;;;;;;-9.24;73.08;102975.44;6238760;23;20035;-67
2024/01/10 05:18:23;;;;;;;129.63;43.67;;;;;;;-9.17;72.98;102977.41;6239822;23;20021;-68
2024/01/10 05:20:50;;;;;;;124.13;43.00;;;;;;;-9.23;73.29;102982.47;6241383;23;20032;-66
2024/01/10 05:23:16;;;;;;;125.13;43.65;;;;;;;-9.27;72.99;102981.50;6241533;23;20019;-69
2024/01/10 05:25:43;;;;;;;123.30;41.63;;;;;;;-9.29;73.03;102977.91;6241775;23;20084;-67
2024/01/10 05:28:10;;;;;;;123.95;43.78;;;;;;;-9.32;73.58;102977.84;6241750;23;20099;-66
2024/01/10 05:30:36;;;;;;;138.80;43.95;;;;;;;-9.33;73.98;102976.06;6241375;23;20471;-66
2024/01/10 05:33:03;;;;;;;129.68;44.70;;;;;;;-9.31;73.49;102984.88;6241233;23;20095;-66
2024/01/10 05:35:30;;;;;;;142.80;45.97;;;;;;;-9.33;74.21;102989.19;6239805;23;20123;-67
2024/01/10 05:37:57;;;;;;;131.98;45.47;;;;;;;-9.31;73.82;102984.88;6237620;23;20028;-66
2024/01/10 05:40:23;;;;;;;124.68;43.05;;;;;;;-9.31;74.57;102987.50;6253043;22;20077;-66
2024/01/10 05:42:51;;;;;;;131.75;44.53;;;;;;;-9.34;74.05;102976.91;6269940;22;20019;-67
2024/01/10 05:45:18;;;;;;;127.32;44.67;;;;;;;-9.37;73.87;102982.13;6243438;22;20028;-66
2024/01/10 05:47:44;;;;;;;128.23;44.78;;;;;;;-9.35;73.92;102983.03;6271174;22;20354;-65
2024/01/10 05:50:12;;;;;;;124.47;45.58;;;;;;;-9.41;74.49;102977.59;6270095;22;20039;-66
2024/01/10 05:52:38;;;;;;;139.50;45.90;;;;;;;-9.43;73.54;102976.66;6269745;22;20020;-66
2024/01/10 05:55:08;;;;;;;125.78;46.55;;;;;;;-9.47;73.94;102982.66;6270221;22;20030;-66
2024/01/10 05:57:38;;;;;;;126.30;47.08;;;;;;;-9.52;74.36;102979.00;6268962;22;20043;-65
2024/01/10 06:00:09;;;;;;;139.02;44.97;;;;;;;-9.52;74.67;102979.00;6269698;22;20104;-66
2024/01/10 06:02:40;;;;;;;128.88;45.97;;;;;;;-9.51;74.09;102975.53;6270312;22;20342;-66
2024/01/10 06:05:10;;;;;;;;;;;;;;;-9.50;74.93;102974.69;6270969;22;20102;-66
2024/01/10 06:07:38;;;;;;;144.27;44.95;;;;;;;-9.52;75.20;102972.03;6271274;22;19955;-67
2024/01/10 06:10:05;;;;;;;119.95;43.88;;;;;;;-9.53;75.17;102972.88;6272342;22;20048;-67
2024/01/10 06:12:32;;;;;;;129.45;46.75;;;;;;;-9.52;75.35;102968.50;6271999;22;20020;-68
2024/01/10 06:14:59;;;;;;;146.45;45.53;;;;;;;-9.51;74.59;102962.41;6272204;22;20031;-67
2024/01/10 06:17:26;;;;;;;137.60;46.40;;;;;;;-9.44;74.85;102964.38;6272325;22;20029;-67
2024/01/10 06:19:52;;;;;;;137.65;46.20;;;;;;;-9.52;74.41;102968.50;6272401;22;20045;-67
2024/01/10 06:22:24;;;;;;;127.85;44.00;;;;;;;-9.51;74.44;102970.28;6272139;22;20405;-67
2024/01/10 06:24:55;;;;;;;132.63;46.30;;;;;;;-9.52;74.33;102963.25;6272517;22;20066;-68
2024/01/10 06:27:22;;;;;;;132.98;45.45;;;;;;;-9.53;74.80;102962.38;6271790;22;20111;-67
2024/01/10 06:29:48;;;;;;;132.52;45.83;;;;;;;-9.41;74.71;102957.47;6272397;22;20024;-67
2024/01/10 06:32:15;;;;;;;128.10;44.33;;;;;;;-9.40;74.46;102958.34;6272871;22;20026;-67
2024/01/10 06:34:42;;;;;;;132.55;45.42;;;;;;;-9.39;74.42;102953.13;6272925;22;20519;-67
2024/01/10 06:37:08;;;;;;;133.40;46.20;;;;;;;-9.38;73.84;102956.66;6272162;22;20019;-67
2024/01/10 06:39:35;;;;;;;126.38;46.05;;;;;;;-9.39;74.68;102950.50;6270693;22;20440;-67
2024/01/10 06:42:08;;;;;;;131.20;45.20;;;;;;;-9.37;74.05;102953.22;6272033;22;20027;-67
2024/01/10 06:44:35;;;;;;;135.85;46.53;;;;;;;-9.36;73.72;102955.88;6271947;22;20035;-67
2024/01/10 06:47:02;;;;;;;125.53;43.80;;;;;;;-9.07;73.44;102958.41;6271304;22;20023;-67
2024/01/10 06:49:29;;;;;;;122.07;45.00;;;;;;;-9.11;73.33;102957.41;6271694;22;20026;-67
2024/01/10 06:51:56;;;;;;;132.50;42.95;;;;;;;-9.13;72.95;102948.59;6270744;22;20047;-67
2024/01/10 06:54:23;;;;;;;125.18;44.03;;;;;;;-9.16;73.86;102947.66;6270943;22;20020;-68
2024/01/10 06:56:49;;;;;;;129.45;46.20;;;;;;;-9.15;73.48;102949.44;6271307;22;20369;-67
2024/01/10 06:59:16;;;;;;;127.32;45.75;;;;;;;-9.15;72.93;102950.31;6272306;22;20024;-67
2024/01/10 07:01:42;;;;;;;122.38;44.58;;;;;;;-9.15;72.95;102958.19;6272004;22;20091;-67
2024/01/10 07:04:09;;;;;;;124.82;44.17;;;;;;;-9.21;73.50;102965.91;6245201;22;20019;-67
2024/01/10 07:06:35;;;;;;;130.65;44.47;;;;;;;-9.18;73.20;102965.13;6271336;22;20027;-67
2024/01/10 07:09:02;;;;;;;141.27;48.03;;;;;;;-9.13;73.63;102963.50;6271005;22;20023;-66
2024/01/10 07:11:29;;;;;;;122.95;42.97;;;;;;;-9.14;72.62;102962.59;6271278;22;20020;-66
2024/01/10 07:13:56;;;;;;;128.43;44.45;;;;;;;-9.16;72.90;102964.31;6270842;22;20024;-66
2024/01/10 07:16:23;;;;;;;131.05;43.85;;;;;;;-9.11;73.32;102960.06;6270682;22;20016;-66
2024/01/10 07:18:51;;;;;;;135.57;45.90;;;;;;;-9.06;73.70;102961.09;6270990;22;20023;-67
2024/01/10 07:21:18;;;;;;;137.20;46.78;;;;;;;-8.98;73.73;102960.41;6270456;22;20098;-67
2024/01/10 07:23:44;;;;;;;148.27;47.28;;;;;;;-9.07;73.04;102961.94;6271560;22;20372;-66
2024/01/10 07:26:13;;;;;;;145.85;45.65;;;;;;;-9.07;73.18;102964.56;6270804;22;20081;-67
2024/01/10 07:28:41;;;;;;;124.10;44.45;;;;;;;-9.00;72.49;102963.00;6271016;22;20026;-67
2024/01/10 07:31:11;;;;;;;;;;;;;;;-8.88;72.74;102957.19;6271208;22;20023;-65
2024/01/10 07:33:38;;;;;;;127.60;41.63;;;;;;;-9.00;72.39;102954.19;6268569;22;20305;-66
2024/01/10 07:36:05;;;;;;;136.40;44.85;;;;;;;-9.05;72.55;102961.97;6269137;22;20078;-67
2024/01/10 07:38:31;;;;;;;136.95;45.15;;;;;;;-8.94;73.05;102949.13;6270378;22;20363;-68
2024/01/10 07:40:59;;;;;;;131.40;45.95;;;;;;;-8.98;72.30;102949.91;6270148;22;20034;-67
2024/01/10 07:43:27;;;;;;;134.63;47.58;;;;;;;-8.83;72.95;102952.94;6270288;22;20102;-67
2024/01/10 07:45:53;;;;;;;136.50;46.03;;;;;;;-8.85;73.57;102955.53;6270234;22;20028;-67
2024/01/10 07:48:20;;;;;;;136.07;45.30;;;;;;;-8.76;73.37;102949.63;6271072;22;20473;-67
2024/01/10 07:50:46;;;;;;;133.80;47.88;;;;;;;-8.83;73.48;102952.94;6271372;22;20268;-67
2024/01/10 07:53:13;;;;;;;139.38;48.05;;;;;;;-8.84;73.53;102948.53;6271178;22;20427;-67
2024/01/10 07:55:40;;;;;;;140.60;46.30;;;;;;;-8.82;73.56;102954.72;6270287;22;20024;-67
2024/01/10 07:58:07;;;;;;;161.13;54.67;;;;;;;-8.75;73.43;102962.81;6271255;22;20024;-67
2024/01/10 08:00:33;;;;;;;136.70;49.30;;;;;;;-8.69;73.85;102964.72;6269782;22;20118;-67
2024/01/10 08:03:01;;;;;;;135.57;44.85;;;;;;;-8.58;72.95;102965.91;6269261;22;20358;-67
2024/01/10 08:05:27;;;;;;;141.43;48.25;;;;;;;-8.58;72.74;102954.50;6270641;22;20141;-67
2024/01/10 08:07:56;;;;;;;128.75;45.17;;;;;;;-8.40;71.74;102959.34;6270702;22;20034;-66
2024/01/10 08:10:22;;;;;;;139.68;46.30;;;;;;;-8.66;71.02;102962.16;6270572;22;20421;-67
2024/01/10 08:12:49;;;;;;;117.28;43.75;;;;;;;-8.54;71.83;102957.25;6269944;22;20031;-66
2024/01/10 08:15:17;;;;;;;130.60;47.65;;;;;;;-8.47;71.69;102951.28;6270990;22;20031;-68
2024/01/10 08:17:43;;;;;;;140.30;48.80;;;;;;;-8.48;72.06;102956.50;6271400;22;20114;-67
2024/01/10 08:20:10;;;;;;;139.00;45.60;;;;;;;-8.38;71.87;102958.53;6270737;22;20107;-66
2024/01/10 08:22:38;;;;;;;139.32;46.65;;;;;;;-8.37;71.94;102954.16;6270830;22;20489;-67
2024/01/10 08:25:05;;;;;;;143.30;47.88;;;;;;;-8.29;71.01;102963.13;6269676;22;20034;-68
2024/01/10 08:27:33;;;;;;;136.45;45.70;;;;;;;-8.32;70.65;102963.94;6268729;22;20340;-67
2024/01/10 08:30:00;;;;;;;119.30;44.88;;;;;;;-8.24;70.21;102959.78;6269990;22;20046;-67
2024/01/10 08:32:26;;;;;;;124.13;42.25;;;;;;;-8.41;69.70;102952.31;6267226;22;20373;-66
2024/01/10 08:34:53;;;;;;;134.60;45.15;;;;;;;-8.34;70.29;102954.25;6269497;22;20034;-67
2024/01/10 08:37:20;;;;;;;128.98;43.15;;;;;;;-8.36;70.08;102963.81;6269477;22;20407;-67
2024/01/10 08:39:47;;;;;;;137.77;46.40;;;;;;;-8.39;70.86;102961.13;6269500;22;20020;-67
2024/01/10 08:42:13;;;;;;;126.53;46.08;;;;;;;-8.39;70.89;102961.13;6269970;22;20019;-67
2024/01/10 08:44:40;;;;;;;133.82;47.58;;;;;;;-8.49;70.71;102960.00;6269722;22;20030;-67
2024/01/10 08:47:07;;;;;;;137.20;46.03;;;;;;;-8.41;70.25;102953.19;6269828;22;20027;-67
2024/01/10 08:49:34;;;;;;;137.88;46.63;;;;;;;-8.38;70.23;102957.63;6268058;22;20026;-66
2024/01/10 08:52:00;;;;;;;132.30;45.47;;;;;;;-8.35;70.40;102965.59;6241007;22;20030;-67
2024/01/10 08:54:27;;;;;;;132.43;47.33;;;;;;;-8.32;70.45;102963.06;6267698;22;20030;-66
2024/01/10 08:56:54;;;;;;;123.32;45.80;;;;;;;-8.23;70.17;102969.44;6267397;22;20164;-67
2024/01/10 08:59:21;;;;;;;126.60;44.00;;;;;;;-8.22;70.01;102970.34;6266779;22;20020;-67
2024/01/10 09:01:47;;;;;;;131.93;45.95;;;;;;;-8.16;69.66;102970.50;6266867;22;20349;-67
2024/01/10 09:04:14;;;;;;;135.30;47.55;;;;;;;-8.15;70.42;102968.75;6267574;22;20027;-67
2024/01/10 09:06:40;;;;;;;131.68;46.80;;;;;;;-8.13;70.26;102969.69;6240573;22;20430;-67
2024/01/10 09:09:08;;;;;;;137.45;45.25;;;;;;;-8.08;69.93;102968.03;6267510;22;20455;-67
2024/01/10 09:11:35;;;;;;;131.55;47.10;;;;;;;-8.03;69.79;102969.94;6267612;22;20030;-67
2024/01/10 09:14:08;;;;;;;132.90;47.13;;;;;;;-7.96;70.72;102974.50;6267111;22;20062;-67
2024/01/10 09:16:35;;;;;;;118.88;44.60;;;;;;;-7.84;69.91;102973.00;6267651;22;20046;-66
2024/01/10 09:19:02;;;;;;;129.25;45.30;;;;;;;-7.83;68.81;102965.13;6267552;22;20031;-66
2024/01/10 09:21:28;;;;;;;126.38;45.13;;;;;;;-7.84;68.74;102970.38;6267813;22;20026;-67
2024/01/10 09:23:55;;;;;;;125.95;44.35;;;;;;;-7.75;68.70;102967.97;6266857;22;20434;-66
2024/01/10 09:26:23;;;;;;;138.13;45.92;;;;;;;-7.76;68.47;102958.28;6267190;22;20024;-66
2024/01/10 09:28:49;;;;;;;138.65;47.13;;;;;;;-7.66;68.84;102960.28;6267781;22;20020;-68
2024/01/10 09:31:16;;;;;;;125.90;43.33;;;;;;;-7.67;67.75;102966.41;6269227;22;20344;-68
2024/01/10 09:33:43;;;;;;;124.75;43.20;;;;;;;-7.51;67.33;102963.25;6268731;22;20413;-68
2024/01/10 09:36:10;;;;;;;117.93;42.03;;;;;;;-7.55;65.85;102961.41;6269826;22;20035;-68
2024/01/10 09:38:39;;;;;;;117.72;41.75;;;;;;;-7.55;65.26;102958.75;6268988;22;20114;-66
2024/01/10 09:41:06;;;;;;;124.25;44.85;;;;;;;-7.41;66.08;102956.44;6268033;22;20082;-66
2024/01/10 09:43:34;;;;;;;133.73;45.42;;;;;;;-7.29;66.20;102964.59;6267084;22;20107;-66
2024/01/10 09:46:04;;;;;;;138.25;47.70;;;;;;;-7.27;66.57;102954.97;6267556;22;20024;-66
2024/01/10 09:48:32;;;;;;;126.50;46.10;;;;;;;-7.28;66.24;102954.94;6268982;22;20019;-67
2024/01/10 09:50:59;;;;;;;121.72;43.03;;;;;;;-7.18;64.98;102949.00;6268705;22;20023;-66
2024/01/10 09:53:27;;;;;;;121.95;43.70;;;;;;;-6.97;63.70;102945.91;6268241;22;20028;-67
2024/01/10 09:55:59;;;;;;;123.82;43.05;;;;;;;-6.93;64.22;102950.41;6266931;22;20047;-67
2024/01/10 09:58:26;;;;;;;123.45;43.30;;;;;;;-6.69;64.01;102948.16;6268151;22;20519;-67
2024/01/10 10:00:53;;;;;;;128.48;43.00;;;;;;;-6.45;62.68;102945.09;6268884;22;20454;-68
2024/01/10 10:03:20;;;;;;;121.47;42.63;;;;;;;-6.31;61.64;102945.31;6269487;22;20403;-69
2024/01/10 10:05:46;;;;;;;134.00;45.33;;;;;;;-5.78;59.72;102938.25;6273427;22;20037;-68
2024/01/10 10:08:15;;;;;;;110.50;41.47;;;;;;;-5.49;57.44;102941.31;6272446;22;20022;-68
2024/01/10 10:10:45;;;;;;;115.72;42.20;;;;;;;-5.52;57.93;102950.97;6271592;22;20026;-68
2024/01/10 10:13:26;;;;;;;;;;;;;;;-5.16;56.84;102946.16;6272063;22;20015;-69
2024/01/10 10:16:02;;;;;;;118.03;43.10;;;;;;;-4.92;57.01;102947.31;6271938;22;20000;-69
2024/01/10 10:18:31;;;;;;;117.82;43.53;;;;;;;-4.44;54.30;102939.03;6272183;22;20054;-68
2024/01/10 10:21:09;;;;;;;105.70;41.60;;;;;;;-4.91;54.04;102939.41;6272528;22;20408;-68
2024/01/10 10:23:37;;;;;;;108.70;43.33;;;;;;;-5.05;55.38;102938.34;6270980;22;20015;-68
2024/01/10 10:26:20;;;;;;;115.85;44.25;;;;;;;-4.77;54.40;102939.56;6272498;22;20082;-67
2024/01/10 10:28:48;;;;;;;105.75;41.63;;;;;;;-4.96;54.89;102932.28;6272597;22;20043;-69
2024/01/10 10:31:17;;;;;;;112.63;42.10;;;;;;;-4.94;55.18;102926.13;6273530;22;20026;-68
2024/01/10 10:33:44;;;;;;;113.20;43.00;;;;;;;-4.55;54.31;102920.34;6272743;22;20027;-68
2024/01/10 10:36:14;;;;;;;103.95;41.88;;;;;;;-4.30;53.01;102926.78;6272713;22;20025;-68
2024/01/10 10:38:41;;;;;;;107.47;41.58;;;;;;;-4.57;52.88;102919.47;6272121;22;20094;-69
2024/01/10 10:41:10;;;;;;;108.28;41.95;;;;;;;-4.27;53.09;102917.97;6249609;22;20086;-69
2024/01/10 10:43:39;;;;;;;103.07;40.65;;;;;;;-4.70;52.37;102917.59;6241320;23;20471;-68
2024/01/10 10:46:12;;;;;;;112.20;41.47;;;;;;;-4.87;52.83;102903.28;6241191;23;20020;-68
2024/01/10 10:48:39;;;;;;;99.25;39.53;;;;;;;-4.60;53.93;102910.63;6241130;23;20123;-71
2024/01/10 10:51:27;;;;;;;100.47;40.13;;;;;;;-4.32;52.98;102906.44;6240791;23;20058;-68
2024/01/10 10:53:54;;;;;;;102.88;40.22;;;;;;;-4.09;52.55;102904.84;6241493;23;20028;-69
2024/01/10 10:56:23;;;;;;;101.38;40.65;;;;;;;-3.58;50.70;102904.31;6241542;23;20031;-69
2024/01/10 10:58:53;;;;;;;99.55;38.85;;;;;;;-3.32;49.86;102899.13;6239232;23;20073;-69
2024/01/10 11:01:21;;;;;;;89.15;37.50;;;;;;;-2.98;48.58;102901.00;6239181;23;20101;-67
2024/01/10 11:03:48;;;;;;;100.80;38.40;;;;;;;-3.81;49.20;102899.75;6240252;23;20112;-68
2024/01/10 11:06:17;;;;;;;95.43;39.15;;;;;;;-4.16;51.19;102911.00;6239921;23;20020;-67